Time;durP1;ratioP1;P1;durP2;ratioP2;P2;SDS_P1;SDS_P2;PMS_P1;PMS_P2;Temp;Humidity;BMP_temperature;BMP_pressure;BME280_temperature;BME280_humidity;BME280_pressure;Samples;Min_cycle;Max_cycle;Signal;HPM_P1;HPM_P2
2022/04/27 00:00:33;;;;;;;;;6.25;6.25;;;;;20.54;33.26;101685.34;5057890;28;45417;-59
2022/04/27 00:03:00;;;;;;;;;9.00;7.00;;;;;20.52;32.93;101677.47;5057900;28;45418;-62
2022/04/27 00:05:25;;;;;;;;;5.75;5.75;;;;;20.52;32.82;101674.00;5058013;28;45501;-66
2022/04/27 00:07:51;;;;;;;;;7.50;5.75;;;;;20.51;32.97;101673.13;5057480;28;46258;-59
2022/04/27 00:10:19;;;;;;;;;6.75;6.75;;;;;20.51;33.17;101680.19;5057855;28;45443;-64
2022/04/27 00:12:45;;;;;;;;;5.00;5.00;;;;;20.50;33.19;101679.34;5057726;28;45457;-64
2022/04/27 00:15:11;;;;;;;;;5.50;5.50;;;;;20.48;33.25;101677.69;5056485;28;45289;-64
2022/04/27 00:17:37;;;;;;;;;7.50;6.50;;;;;20.49;32.80;101682.03;5057357;28;45222;-64
2022/04/27 00:20:02;;;;;;;;;5.00;5.00;;;;;20.49;33.42;101676.75;5057479;28;45375;-60
2022/04/27 00:22:28;;;;;;;;;7.00;6.00;;;;;20.49;33.40;101687.28;5057565;28;45223;-60
2022/04/27 00:24:53;;;;;;;;;6.00;6.00;;;;;20.45;32.89;101678.69;5057836;28;45595;-62
2022/04/27 00:27:18;;;;;;;;;5.25;5.00;;;;;20.47;32.63;101681.22;5057566;28;46980;-61
2022/04/27 00:29:44;;;;;;;;;7.00;5.50;;;;;20.47;32.92;101683.88;5057225;28;51158;-65
2022/04/27 00:32:09;;;;;;;;;7.00;7.00;;;;;20.39;33.01;101671.88;5057040;28;49649;-59
2022/04/27 00:34:35;;;;;;;;;4.00;4.00;;;;;20.46;33.37;101682.16;5057554;28;45433;-65
2022/04/27 00:37:01;;;;;;;;;7.00;7.00;;;;;20.44;33.05;101679.59;5057141;28;46207;-65
2022/04/27 00:39:26;;;;;;;;;3.50;3.50;;;;;20.45;33.34;101675.19;5057123;28;45416;-64
2022/04/27 00:42:01;;;;;;;;;3.25;3.25;;;;;20.44;32.81;101684.00;5057590;28;45423;-65
2022/04/27 00:44:32;;;;;;;;;7.00;7.00;;;;;20.43;32.71;101683.13;5057312;28;45466;-65
2022/04/27 00:46:58;;;;;;;;;8.00;6.50;;;;;20.43;32.72;101679.66;5056856;28;46171;-60
2022/04/27 00:49:25;;;;;;;;;4.25;4.25;;;;;20.42;33.13;101686.69;5057063;28;45898;-63
2022/04/27 00:51:51;;;;;;;;;6.75;6.75;;;;;20.41;32.87;101678.88;5057369;28;45430;-61
2022/04/27 00:54:22;;;;;;;;;5.00;5.00;;;;;20.42;33.23;101681.44;5056352;28;45506;-58
2022/04/27 00:56:48;;;;;;;;;6.25;6.25;;;;;20.39;33.27;101676.31;5056725;28;46281;-58
2022/04/27 00:59:14;;;;;;;;;6.00;6.00;;;;;20.41;32.83;101673.59;5056800;28;45362;-52
2022/04/27 01:01:39;;;;;;;;;5.25;5.00;;;;;20.39;33.00;101682.41;5056988;28;45341;-55
2022/04/27 01:04:05;;;;;;;;;7.00;7.00;;;;;20.40;32.72;101672.72;5057130;28;45334;-55
2022/04/27 01:06:31;;;;;;;;;6.00;6.00;;;;;20.39;32.79;101665.78;5056754;28;46324;-61
2022/04/27 01:08:56;;;;;;;;;6.50;6.25;;;;;20.37;33.12;101668.44;5056682;28;45450;-64
2022/04/27 01:11:22;;;;;;;;;6.00;6.00;;;;;20.38;32.97;101667.53;5057077;28;45256;-64
2022/04/27 01:13:47;;;;;;;;;5.25;5.25;;;;;20.38;33.42;101664.91;5056698;28;45454;-60
2022/04/27 01:16:13;;;;;;;;;9.00;5.25;;;;;20.37;32.88;101676.34;5056400;28;48683;-63
2022/04/27 01:18:38;;;;;;;;;3.50;3.50;;;;;20.37;32.98;101668.44;5056631;28;45414;-60
2022/04/27 01:21:04;;;;;;;;;7.25;6.75;;;;;20.37;33.46;101670.25;5056687;28;45406;-63
2022/04/27 01:23:29;;;;;;;;;5.00;5.00;;;;;20.37;32.88;101672.88;5056788;28;45252;-60
2022/04/27 01:25:57;;;;;;;;;5.25;5.00;;;;;20.36;32.84;101671.16;5056651;28;46531;-53
2022/04/27 01:28:24;;;;;;;;;7.00;6.00;;;;;20.35;33.54;101670.28;5055100;28;45832;-63
2022/04/27 01:30:59;;;;;;;;;6.00;5.75;;;;;20.35;33.52;101665.03;5057087;28;45403;-59
2022/04/27 01:33:25;;;;;;;;;4.00;4.00;;;;;20.32;33.02;101665.16;5056960;28;45354;-55
2022/04/27 01:35:51;;;;;;;;;5.00;5.00;;;;;20.34;33.16;101665.09;5056529;28;47150;-59
2022/04/27 01:38:17;;;;;;;;;7.25;7.25;;;;;20.34;33.08;101660.69;5056449;28;45338;-58
2022/04/27 01:40:43;;;;;;;;;5.25;5.25;;;;;20.34;32.94;101667.72;5056345;28;45280;-53
2022/04/27 01:43:08;;;;;;;;;5.00;5.00;;;;;20.32;32.93;101662.53;5056541;28;45488;-60
2022/04/27 01:45:34;;;;;;;;;4.75;4.75;;;;;20.33;33.26;101664.25;5056099;28;46560;-59
2022/04/27 01:47:59;;;;;;;;;6.75;6.75;;;;;20.32;32.74;101667.81;5056251;28;45282;-61
2022/04/27 01:50:24;;;;;;;;;5.25;5.25;;;;;20.31;33.15;101660.81;5055217;28;45397;-53
2022/04/27 01:55:34;;;;;;;;;7.00;6.00;;;;;20.31;32.79;101658.19;5056171;28;45645;-58
2022/04/27 01:57:59;;;;;;;;;6.25;6.00;;;;;20.31;33.34;101667.84;5056153;28;45247;-64
2022/04/27 02:00:25;;;;;;;;;8.75;7.00;;;;;20.29;33.23;101664.41;5056503;28;45303;-59
2022/04/27 02:02:50;;;;;;;;;6.00;6.00;;;;;20.28;32.74;101676.72;5056460;28;45204;-64
2022/04/27 02:05:16;;;;;;;;;9.00;7.00;;;;;20.29;33.27;101675.81;5055978;28;45316;-61
2022/04/27 02:07:43;;;;;;;;;8.00;7.00;;;;;20.27;32.96;101672.38;5059420;28;45243;-60
2022/04/27 02:10:09;;;;;;;;;5.00;5.00;;;;;20.28;33.35;101679.38;5059536;28;45410;-63
2022/04/27 02:12:34;;;;;;;;;5.00;5.00;;;;;20.28;33.38;101683.78;5059686;28;45516;-58
2022/04/27 02:15:00;;;;;;;;;5.75;5.75;;;;;20.27;32.98;101676.81;5059175;28;46403;-61
2022/04/27 02:17:25;;;;;;;;;6.00;6.00;;;;;20.27;32.88;101676.81;5058388;28;45284;-60
2022/04/27 02:19:50;;;;;;;;;7.00;6.00;;;;;20.26;33.28;101686.47;5059557;28;45253;-63
2022/04/27 02:22:16;;;;;;;;;6.50;6.50;;;;;20.26;33.25;101681.19;5059755;28;45224;-60
2022/04/27 02:24:42;;;;;;;;;7.00;7.00;;;;;20.23;33.21;101670.78;5059112;28;45358;-63
2022/04/27 02:27:07;;;;;;;;;5.25;5.25;;;;;20.25;33.23;101676.84;5059357;28;45368;-63
2022/04/27 02:29:32;;;;;;;;;6.00;6.00;;;;;20.22;33.04;101674.38;5059492;28;45809;-59
2022/04/27 02:31:58;;;;;;;;;6.00;5.00;;;;;20.23;33.32;101670.78;5059612;28;45522;-57
2022/04/27 02:34:23;;;;;;;;;6.25;6.25;;;;;20.22;33.11;101669.94;5059442;28;46042;-64
2022/04/27 02:36:48;;;;;;;;;5.00;5.00;;;;;20.22;32.93;101669.09;5057739;28;46404;-64
2022/04/27 02:39:14;;;;;;;;;7.00;7.00;;;;;20.21;32.99;101667.38;5059174;28;45485;-63
2022/04/27 02:41:40;;;;;;;;;5.75;5.00;;;;;20.22;32.91;101677.00;5059385;28;45512;-57
2022/04/27 02:44:06;;;;;;;;;7.50;7.00;;;;;20.21;32.93;101676.13;5058564;28;45219;-60
2022/04/27 02:46:32;;;;;;;;;6.50;6.00;;;;;20.21;32.79;101683.19;5058969;28;45382;-61
2022/04/27 02:51:51;;;;;;;;;4.50;4.50;;;;;20.20;32.75;101681.47;5059223;28;45410;-56
2022/04/27 02:54:18;;;;;;;;;8.25;6.00;;;;;20.19;33.39;101674.47;5058613;28;45474;-60
2022/04/27 02:56:44;;;;;;;;;9.50;7.00;;;;;20.18;33.00;101678.03;5058908;28;45882;-59
2022/04/27 02:59:10;;;;;;;;;5.50;5.50;;;;;20.19;33.32;101671.84;5058839;28;45369;-61
2022/04/27 03:01:36;;;;;;;;;8.25;6.50;;;;;20.18;33.13;101672.78;5057822;28;45577;-61
2022/04/27 03:04:01;;;;;;;;;6.00;6.00;;;;;20.17;32.98;101671.06;5058539;28;45394;-62
2022/04/27 03:06:27;;;;;;;;;8.25;7.00;;;;;20.17;32.87;101673.69;5058930;28;45378;-64
2022/04/27 03:08:52;;;;;;;;;7.00;7.00;;;;;20.16;32.63;101669.34;5057379;28;45353;-60
2022/04/27 03:11:18;;;;;;;;;7.00;7.00;;;;;20.15;33.13;101668.50;5058761;28;45303;-64
2022/04/27 03:13:43;;;;;;;;;7.25;6.25;;;;;20.16;32.90;101669.34;5058343;28;45921;-62
2022/04/27 03:16:09;;;;;;;;;7.25;5.50;;;;;20.16;33.30;101664.06;5058462;28;45334;-64
2022/04/27 03:18:34;;;;;;;;;5.25;5.25;;;;;20.14;32.69;101664.16;5057751;28;45166;-61
2022/04/27 03:21:00;;;;;;;;;6.00;5.00;;;;;20.15;33.47;101657.09;5059053;28;45523;-60
2022/04/27 03:23:25;;;;;;;;;7.50;6.00;;;;;20.12;32.84;101650.19;5058499;28;47245;-55
2022/04/27 03:25:50;;;;;;;;;6.00;6.00;;;;;20.14;33.27;101665.91;5058501;28;45512;-62
2022/04/27 03:28:16;;;;;;;;;6.75;6.00;;;;;20.13;33.07;101659.81;5058563;28;45263;-63
2022/04/27 03:30:41;;;;;;;;;7.00;7.00;;;;;20.12;33.35;101657.25;5058478;28;45228;-63
2022/04/27 03:33:07;;;;;;;;;6.75;6.00;;;;;20.15;32.83;101659.72;5058213;28;46115;-65
2022/04/27 03:35:32;;;;;;;;;9.25;7.00;;;;;20.12;32.94;101655.44;5058156;28;45383;-61
2022/04/27 03:37:58;;;;;;;;;5.50;5.50;;;;;20.12;33.09;101657.25;5058775;28;45302;-63
2022/04/27 03:40:27;;;;;;;;;7.50;7.00;;;;;20.13;33.21;101659.81;5057230;28;45671;-60
2022/04/27 03:42:53;;;;;;;;;9.00;8.25;;;;;20.12;33.42;101662.50;5058193;28;45545;-63
2022/04/27 03:45:19;;;;;;;;;6.50;5.25;;;;;20.11;33.04;101661.63;5058257;28;45447;-63
2022/04/27 03:47:47;;;;;;;;;6.50;5.25;;;;;20.11;33.12;101658.16;5058110;28;45276;-59
2022/04/27 03:50:12;;;;;;;;;6.75;6.25;;;;;20.11;33.46;101661.63;5058229;28;45453;-65
2022/04/27 03:52:38;;;;;;;;;8.00;8.00;;;;;20.11;32.94;101656.38;5057818;28;45357;-61
2022/04/27 03:55:03;;;;;;;;;10.50;8.00;;;;;20.10;32.99;101659.06;5057877;28;45272;-63
2022/04/27 03:57:29;;;;;;;;;8.50;8.50;;;;;20.09;32.95;101660.81;5058398;28;45480;-63
2022/04/27 03:59:55;;;;;;;;;9.00;8.25;;;;;20.10;32.83;101659.06;5058097;28;45563;-64
2022/04/27 04:02:21;;;;;;;;;9.00;8.50;;;;;20.06;32.87;101664.44;5057671;28;45891;-64
2022/04/27 04:04:46;;;;;;;;;6.50;6.50;;;;;20.10;33.04;101661.69;5057579;28;45407;-63
2022/04/27 04:07:12;;;;;;;;;11.00;7.50;;;;;20.08;32.92;101656.47;5057835;28;45492;-62
2022/04/27 04:09:38;;;;;;;;;6.00;6.00;;;;;20.08;32.87;101661.75;5057994;28;45330;-63
2022/04/27 04:12:05;;;;;;;;;12.25;8.25;;;;;20.06;33.04;101660.97;5057428;28;46233;-59
2022/04/27 04:14:31;;;;;;;;;9.00;9.00;;;;;20.03;32.99;101667.19;5057715;28;45311;-55
2022/04/27 04:16:56;;;;;;;;;9.25;9.25;;;;;20.01;33.00;101669.03;5057780;28;45245;-62
2022/04/27 04:19:22;;;;;;;;;8.00;8.00;;;;;20.00;33.03;101677.88;5057948;28;45223;-59
2022/04/27 04:21:47;;;;;;;;;7.75;7.25;;;;;19.98;33.01;101665.66;5039343;28;46855;-65
2022/04/27 04:24:13;;;;;;;;;10.25;10.25;;;;;19.97;33.12;101679.72;5057360;28;45272;-64
2022/04/27 04:29:22;;;;;;;;;12.50;11.00;;;;;19.93;33.32;101673.75;5056278;28;45461;-65
2022/04/27 04:31:47;;;;;;;;;9.25;8.00;;;;;19.85;33.22;101666.13;5057071;28;46989;-65
2022/04/27 04:34:13;;;;;;;;;7.75;7.75;;;;;19.88;33.41;101675.72;5057173;28;45345;-64
2022/04/27 04:36:39;;;;;;;;;14.25;10.00;;;;;19.84;33.30;101674.94;5057252;28;45409;-64
2022/04/27 04:39:04;;;;;;;;;10.25;8.25;;;;;19.87;33.27;101679.25;5057749;28;45502;-60
2022/04/27 04:41:29;;;;;;;;;11.50;10.00;;;;;19.84;33.43;101682.84;5057206;28;45291;-63
2022/04/27 04:43:56;;;;;;;;;12.50;10.00;;;;;19.86;33.39;101690.69;5057136;28;45290;-63
2022/04/27 04:46:21;;;;;;;;;13.25;12.75;;;;;19.85;33.34;101688.94;5057021;28;45563;-66
2022/04/27 04:48:47;;;;;;;;;9.00;8.50;;;;;19.84;33.80;101687.22;5056100;28;45276;-53
2022/04/27 04:51:12;;;;;;;;;9.25;8.25;;;;;19.81;33.48;101687.34;5056983;28;45357;-53
2022/04/27 04:53:38;;;;;;;;;11.25;10.00;;;;;19.81;33.27;101690.84;5057003;28;45461;-54
2022/04/27 04:56:03;;;;;;;;;9.50;9.50;;;;;19.80;33.41;101690.88;5057383;28;45319;-53
2022/04/27 04:58:29;;;;;;;;;12.00;9.25;;;;;19.77;33.71;101690.13;5057326;28;45185;-58
2022/04/27 05:00:55;;;;;;;;;14.50;11.75;;;;;19.74;33.08;101690.22;5055430;28;45480;-61
2022/04/27 05:03:20;;;;;;;;;12.75;10.50;;;;;19.74;33.48;101700.75;5055659;28;45391;-55
2022/04/27 05:05:46;;;;;;;;;10.00;10.00;;;;;19.72;33.69;101697.31;5056871;28;45306;-57
2022/04/27 05:08:11;;;;;;;;;10.00;10.00;;;;;19.72;33.32;101697.31;5057135;28;45217;-61
2022/04/27 05:10:37;;;;;;;;;9.75;9.25;;;;;19.70;33.32;101704.38;5056554;28;47077;-64
2022/04/27 05:13:03;;;;;;;;;10.25;10.25;;;;;19.70;33.50;101709.66;5056831;28;45171;-64
2022/04/27 05:15:28;;;;;;;;;12.75;11.00;;;;;19.68;33.44;101702.75;5056865;28;45444;-65
2022/04/27 05:17:54;;;;;;;;;12.25;12.00;;;;;19.68;32.87;101700.97;5057025;28;45326;-65
2022/04/27 05:20:19;;;;;;;;;13.25;11.75;;;;;19.66;33.45;101712.47;5056518;28;45271;-65
2022/04/27 05:22:45;;;;;;;;;13.00;12.00;;;;;19.63;33.05;101710.81;5056603;28;45347;-65
2022/04/27 05:25:11;;;;;;;;;11.50;11.00;;;;;19.61;33.16;101712.63;5056742;28;45295;-65
2022/04/27 05:27:38;;;;;;;;;11.50;11.50;;;;;19.63;33.19;101713.44;5057119;28;45584;-63
2022/04/27 05:32:49;;;;;;;;;12.00;11.00;;;;;19.63;33.50;101721.34;5056278;28;45263;-61
2022/04/27 05:35:15;;;;;;;;;13.75;10.25;;;;;19.61;33.30;101718.78;5056518;28;45362;-62
2022/04/27 05:37:41;;;;;;;;;11.25;11.25;;;;;19.61;33.35;101725.78;5056572;28;45584;-62
2022/04/27 05:40:08;;;;;;;;;10.25;9.25;;;;;19.59;33.52;101731.13;5056432;28;45321;-65
2022/04/27 05:42:35;;;;;;;;;14.25;14.25;;;;;19.60;33.44;101737.22;5056444;28;45986;-64
2022/04/27 05:45:00;;;;;;;;;14.00;11.50;;;;;19.58;33.58;101739.03;5056468;28;45431;-63
2022/04/27 05:47:26;;;;;;;;;4.00;4.00;;;;;19.57;33.40;101737.31;5056595;28;45306;-55
2022/04/27 05:49:52;;;;;;;;;13.50;12.75;;;;;19.57;33.59;101734.69;5055991;28;45341;-58
2022/04/27 05:52:20;;;;;;;;;14.00;13.25;;;;;19.58;33.27;101741.66;5056025;28;45402;-62
2022/04/27 05:54:46;;;;;;;;;15.00;12.50;;;;;19.59;33.35;101748.66;5056303;28;45311;-61
2022/04/27 05:57:12;;;;;;;;;12.25;11.00;;;;;19.59;33.77;101743.38;5056318;28;45215;-65
2022/04/27 05:59:38;;;;;;;;;13.00;13.00;;;;;19.58;33.45;101750.44;5056346;28;45290;-65
2022/04/27 06:02:03;;;;;;;;;12.25;12.25;;;;;19.55;33.69;101754.94;5055817;28;45540;-54
2022/04/27 06:04:29;;;;;;;;;16.75;14.50;;;;;19.54;33.23;101750.59;5055997;28;45386;-62
2022/04/27 06:06:54;;;;;;;;;14.00;13.00;;;;;19.52;33.36;101758.53;5054809;28;45339;-61
2022/04/27 06:09:20;;;;;;;;;12.75;12.75;;;;;19.52;33.21;101757.69;5055805;28;46156;-61
2022/04/27 06:11:46;;;;;;;;;13.75;13.75;;;;;19.50;33.23;101754.25;5055613;28;45296;-66
2022/04/27 06:14:11;;;;;;;;;14.25;13.50;;;;;19.47;33.33;101766.59;5054564;28;45510;-62
2022/04/27 06:16:36;;;;;;;;;11.50;11.25;;;;;19.45;33.52;101768.44;5056507;28;45573;-61
2022/04/27 06:19:03;;;;;;;;;18.25;14.75;;;;;19.45;33.26;101770.19;5055722;28;45321;-64
2022/04/27 06:21:31;;;;;;;;;10.75;10.75;;;;;19.43;33.23;101770.25;5054836;28;45526;-65
2022/04/27 06:23:58;;;;;;;;;20.00;15.75;;;;;19.44;33.23;101771.97;5055833;28;45197;-52
2022/04/27 06:26:23;;;;;;;;;14.50;12.50;;;;;19.43;33.25;101774.63;5055979;28;45377;-59
2022/04/27 06:28:49;;;;;;;;;16.50;16.25;;;;;19.43;33.50;101780.78;5055623;28;45905;-53
2022/04/27 06:31:14;;;;;;;;;13.25;13.25;;;;;19.42;33.70;101779.06;5055531;28;45364;-52
2022/04/27 06:33:40;;;;;;;;;13.75;13.25;;;;;19.41;33.27;101777.34;5054786;28;45395;-53
2022/04/27 06:36:05;;;;;;;;;14.25;12.75;;;;;19.42;33.20;101784.31;5056221;28;45507;-59
2022/04/27 06:38:31;;;;;;;;;12.50;10.75;;;;;19.39;33.42;101779.16;5055512;28;45405;-62
2022/04/27 06:40:56;;;;;;;;;14.50;12.25;;;;;19.42;33.57;101789.56;5055443;28;45244;-65
2022/04/27 06:43:21;;;;;;;;;18.25;15.00;;;;;19.43;33.70;101786.03;5055641;28;45377;-55
2022/04/27 06:45:47;;;;;;;;;16.00;12.75;;;;;19.42;32.99;101781.69;5055879;28;45240;-52
2022/04/27 06:48:12;;;;;;;;;19.75;16.00;;;;;19.41;32.95;101793.09;5055397;28;46168;-65
2022/04/27 06:50:38;;;;;;;;;18.00;13.50;;;;;19.43;33.52;101788.66;5037727;28;45369;-57
2022/04/27 06:53:04;;;;;;;;;13.00;11.75;;;;;19.43;33.21;101791.28;5056563;28;45274;-65
2022/04/27 06:55:31;;;;;;;;;15.00;13.25;;;;;19.45;33.07;101793.84;5059212;28;45211;-65
2022/04/27 06:57:56;;;;;;;;;14.00;13.00;;;;;19.43;33.54;101788.66;5058788;28;46247;-65
2022/04/27 07:00:22;;;;;;;;;15.00;12.75;;;;;19.44;33.21;101793.00;5058879;28;45235;-62
2022/04/27 07:02:48;;;;;;;;;17.25;14.50;;;;;19.44;33.29;101794.75;5059047;28;45280;-60
2022/04/27 07:05:17;;;;;;;;;15.50;14.50;;;;;19.43;33.20;101793.91;5059012;28;45580;-59
2022/04/27 07:07:44;;;;;;;;;17.00;14.25;;;;;19.44;33.33;101798.25;5058703;28;46534;-60
2022/04/27 07:10:11;;;;;;;;;17.00;14.25;;;;;19.47;33.51;101813.06;5058667;28;45266;-56
2022/04/27 07:12:38;;;;;;;;;17.00;13.75;;;;;19.46;33.65;101804.31;5059058;28;45890;-55
2022/04/27 07:15:04;;;;;;;;;14.25;14.25;;;;;19.49;33.66;101805.09;5058554;28;45449;-48
2022/04/27 07:17:30;;;;;;;;;12.50;12.25;;;;;19.50;33.85;101807.72;5058224;28;46502;-54
2022/04/27 07:19:56;;;;;;;;;16.25;13.50;;;;;19.49;33.78;101810.38;5058165;28;46019;-47
2022/04/27 07:22:21;;;;;;;;;17.75;14.00;;;;;19.52;33.76;101812.91;5058408;28;45483;-56
2022/04/27 07:24:49;;;;;;;;;19.25;13.25;;;;;19.54;33.45;101808.44;5058577;28;45545;-49
2022/04/27 07:27:14;;;;;;;;;15.75;13.50;;;;;19.55;33.47;101810.16;5058319;28;45296;-51
2022/04/27 07:29:40;;;;;;;;;19.75;16.25;;;;;19.56;33.88;101806.63;5058470;28;45326;-53
2022/04/27 07:32:05;;;;;;;;;15.50;14.25;;;;;19.56;33.54;101811.88;5058167;28;45166;-55
2022/04/27 07:34:31;;;;;;;;;15.50;13.50;;;;;19.59;33.45;101817.00;5058429;28;45531;-52
2022/04/27 07:36:58;;;;;;;;;27.75;20.00;;;;;19.60;33.71;101818.75;5057959;28;46080;-55
2022/04/27 07:39:24;;;;;;;;;25.00;19.25;;;;;19.63;34.06;101821.25;5058275;28;46299;-62
2022/04/27 07:41:50;;;;;;;;;16.25;13.50;;;;;19.64;33.91;101825.63;5058160;28;45360;-61
2022/04/27 07:44:15;;;;;;;;;23.25;16.75;;;;;19.63;33.73;101823.91;5058294;28;45647;-58
2022/04/27 07:46:42;;;;;;;;;19.50;17.25;;;;;19.65;33.90;101822.06;5058147;28;46470;-54
2022/04/27 07:49:07;;;;;;;;;15.75;13.00;;;;;19.66;34.09;101821.16;5057880;28;45406;-57
2022/04/27 07:51:33;;;;;;;;;17.00;16.50;;;;;19.67;33.62;101830.78;5057915;28;45767;-59
2022/04/27 07:53:58;;;;;;;;;22.00;16.25;;;;;19.67;33.56;101819.38;5058048;28;45410;-63
2022/04/27 07:56:24;;;;;;;;;18.50;15.25;;;;;19.66;34.00;101823.78;5057736;28;45715;-61
2022/04/27 07:58:49;;;;;;;;;14.50;14.50;;;;;19.67;34.16;101829.91;5057754;28;45356;-62
2022/04/27 08:01:15;;;;;;;;;18.50;16.00;;;;;19.68;34.04;101827.19;5057897;28;45327;-57
2022/04/27 08:03:40;;;;;;;;;16.75;15.75;;;;;19.66;33.76;101815.03;5057232;28;45432;-60
2022/04/27 08:06:06;;;;;;;;;15.75;13.00;;;;;19.64;33.97;101817.72;5055392;28;45497;-62
2022/04/27 08:08:31;;;;;;;;;17.50;15.50;;;;;19.68;34.08;101821.09;5056170;28;45383;-57
2022/04/27 08:10:57;;;;;;;;;17.50;17.50;;;;;19.70;34.09;101825.38;5057652;28;45251;-59
2022/04/27 08:13:23;;;;;;;;;20.25;15.25;;;;;19.71;33.75;101829.72;5057755;28;45373;-56
2022/04/27 08:15:48;;;;;;;;;16.50;15.00;;;;;19.67;33.91;101817.63;5057435;28;46205;-59
2022/04/27 08:18:14;;;;;;;;;17.75;13.75;;;;;19.73;33.57;101827.06;5057798;28;45279;-59
2022/04/27 08:23:30;;;;;;;;;21.50;17.25;;;;;19.74;34.11;101827.00;5057570;28;45437;-55
2022/04/27 08:26:03;;;;;;;;;15.00;15.00;;;;;19.76;33.65;101826.94;5057324;28;46465;-65
2022/04/27 08:28:29;;;;;;;;;18.25;15.50;;;;;19.76;33.47;101833.06;5057268;28;45286;-61
2022/04/27 08:30:55;;;;;;;;;16.25;16.25;;;;;19.77;33.93;101833.91;5057161;28;45597;-62
2022/04/27 08:33:21;;;;;;;;;15.75;13.50;;;;;19.79;33.72;101839.97;5057559;28;45342;-51
2022/04/27 08:35:47;;;;;;;;;15.50;15.50;;;;;19.80;33.95;101840.81;5057248;28;46209;-58
2022/04/27 08:38:13;;;;;;;;;17.00;16.00;;;;;19.81;33.89;101840.78;5056205;28;45217;-56
2022/04/27 08:40:46;;;;;;;;;17.00;15.75;;;;;19.81;33.92;101842.53;5057335;28;45515;-64
2022/04/27 08:43:13;;;;;;;;;19.25;15.75;;;;;19.75;33.99;101831.34;5057632;28;45583;-66
2022/04/27 08:45:43;;;;;;;;;17.75;16.25;;;;;19.82;33.62;101842.50;5057021;28;46451;-62
2022/04/27 08:48:10;;;;;;;;;21.75;17.00;;;;;19.83;34.00;101840.72;5057118;28;45880;-53
2022/04/27 08:50:37;;;;;;;;;20.00;13.25;;;;;19.85;33.89;101838.91;5056923;28;45442;-58
2022/04/27 08:53:03;;;;;;;;;13.75;13.75;;;;;19.84;34.01;101837.19;5057455;28;45295;-53
2022/04/27 08:55:28;;;;;;;;;16.25;13.75;;;;;19.86;34.05;101835.38;5056808;28;46065;-63
2022/04/27 08:58:17;;;;;;;;;17.25;16.25;;;;;19.86;33.65;101825.72;5056888;28;45400;-66
2022/04/27 09:00:44;;;;;;;;;17.00;16.50;;;;;19.86;33.66;101825.72;5057033;28;45872;-66
2022/04/27 09:03:30;;;;;;;;;22.00;15.75;;;;;19.87;34.12;101831.84;5057231;28;45578;-52
2022/04/27 09:05:55;;;;;;;;;19.50;17.25;;;;;19.88;33.78;101842.31;5056643;28;46870;-58
2022/04/27 09:08:23;;;;;;;;;20.25;19.25;;;;;19.89;33.74;101835.28;5056884;28;45385;-61
2022/04/27 09:10:49;;;;;;;;;17.50;14.50;;;;;19.88;33.78;101838.81;5056901;28;45538;-57
2022/04/27 09:13:15;;;;;;;;;15.50;15.50;;;;;19.88;34.12;101833.56;5057225;28;45279;-63
2022/04/27 09:15:41;;;;;;;;;21.50;18.00;;;;;19.90;33.91;101836.97;5055817;28;46021;-55
2022/04/27 09:21:01;;;;;;;;;15.75;14.75;;;;;19.91;33.78;101833.44;5056692;28;45430;-62
2022/04/27 09:23:37;;;;;;;;;20.50;14.75;;;;;19.92;33.92;101840.41;5056872;28;45369;-55
2022/04/27 09:26:22;;;;;;;;;22.50;18.50;;;;;19.91;33.77;101838.69;5056456;28;45410;-61
2022/04/27 09:28:49;;;;;;;;;17.25;15.25;;;;;19.92;33.83;101838.66;5056772;28;45886;-60
2022/04/27 09:31:34;;;;;;;;;18.75;18.00;;;;;19.92;34.25;101846.56;5056702;28;45284;-65
2022/04/27 09:34:27;;;;;;;;;17.75;15.75;;;;;19.92;33.77;101840.41;5056575;28;45296;-62
2022/04/27 09:37:11;;;;;;;;;18.50;15.00;;;;;19.93;33.91;101843.00;5056127;28;45351;-58
2022/04/27 09:39:36;;;;;;;;;18.50;14.50;;;;;19.95;34.32;101836.84;5056361;28;45937;-55
2022/04/27 09:42:06;;;;;;;;;19.75;16.50;;;;;19.93;33.93;101834.25;5056423;28;45252;-59
2022/04/27 09:44:34;;;;;;;;;18.25;15.00;;;;;19.97;34.15;101837.59;5056597;28;45347;-61
2022/04/27 09:47:03;;;;;;;;;18.75;17.25;;;;;19.97;34.20;101843.75;5056156;28;46112;-61
2022/04/27 09:49:30;;;;;;;;;18.75;16.00;;;;;19.97;34.39;101832.34;5054876;28;45867;-61
2022/04/27 09:51:55;;;;;;;;;19.25;17.50;;;;;19.96;33.95;101843.78;5056310;28;45344;-60
2022/04/27 09:54:26;;;;;;;;;19.25;18.25;;;;;19.93;34.33;101832.47;5056369;28;45331;-57
2022/04/27 09:56:54;;;;;;;;;18.75;16.00;;;;;19.97;34.32;101837.59;5055902;28;45302;-62
2022/04/27 09:59:23;;;;;;;;;15.25;14.50;;;;;19.98;34.00;101824.41;5056483;28;45811;-66
2022/04/27 10:01:49;;;;;;;;;18.00;14.00;;;;;19.98;34.48;101827.03;5056456;28;45282;-61
2022/04/27 10:04:23;;;;;;;;;17.00;16.50;;;;;19.99;34.35;101826.13;5056261;28;45623;-56
2022/04/27 10:06:49;;;;;;;;;16.50;14.75;;;;;19.99;34.46;101812.97;5056479;28;46482;-58
2022/04/27 10:09:15;;;;;;;;;23.25;18.50;;;;;20.00;34.03;101825.22;5055860;28;46014;-57
2022/04/27 10:11:42;;;;;;;;;20.00;17.50;;;;;20.00;34.17;101819.09;5056022;28;45446;-65
2022/04/27 10:14:08;;;;;;;;;16.75;15.50;;;;;19.99;34.49;101810.34;5055985;28;45415;-60
2022/04/27 10:16:35;;;;;;;;;15.25;14.25;;;;;20.00;34.45;101812.06;5055748;28;46144;-59
2022/04/27 10:19:00;;;;;;;;;17.25;16.50;;;;;20.00;34.09;101806.81;5055883;28;45288;-63
2022/04/27 10:21:43;;;;;;;;;16.50;15.75;;;;;19.99;34.04;101794.56;5055890;28;45638;-60
2022/04/27 10:24:12;;;;;;;;;16.00;16.00;;;;;20.01;34.09;101791.84;5055842;28;45325;-62
2022/04/27 10:26:38;;;;;;;;;18.25;15.75;;;;;20.03;34.21;101795.28;5055897;28;45350;-54
2022/04/27 10:29:05;;;;;;;;;17.75;16.25;;;;;20.04;34.29;101786.47;5059208;28;45357;-65
2022/04/27 10:31:43;;;;;;;;;19.25;16.50;;;;;20.06;34.33;101787.28;5059145;28;45295;-59
2022/04/27 10:34:20;;;;;;;;;14.75;13.50;;;;;20.06;34.36;101785.50;5059334;28;45399;-65
2022/04/27 10:36:50;;;;;;;;;18.25;16.75;;;;;20.07;34.39;101773.19;5059007;28;45257;-64
2022/04/27 10:39:20;;;;;;;;;15.75;15.00;;;;;20.05;34.63;101773.25;5059009;28;45457;-61
2022/04/27 10:42:03;;;;;;;;;17.75;14.50;;;;;20.07;34.89;101766.16;5058051;28;45252;-68
2022/04/27 10:44:47;;;;;;;;;16.00;16.00;;;;;20.07;34.98;101768.78;5059369;28;45532;-67
2022/04/27 10:47:22;;;;;;;;;19.75;15.50;;;;;20.07;34.98;101766.16;5059039;28;46079;-62
2022/04/27 10:50:08;;;;;;;;;14.00;14.00;;;;;20.08;35.09;101767.00;5058883;28;45513;-64
2022/04/27 10:52:43;;;;;;;;;16.75;16.00;;;;;20.08;35.08;101773.16;5058833;28;45385;-62
2022/04/27 10:55:34;;;;;;;;;15.75;15.75;;;;;20.08;35.17;101765.25;5059165;28;45258;-65
2022/04/27 10:58:18;;;;;;;;;20.75;17.50;;;;;20.08;35.12;101773.16;5058502;28;45448;-66
2022/04/27 11:01:02;;;;;;;;;19.00;15.75;;;;;20.06;35.23;101764.44;5058742;28;45890;-58
2022/04/27 11:03:38;;;;;;;;;20.50;18.50;;;;;20.06;35.27;101769.72;5058694;28;45164;-57
2022/04/27 11:06:13;;;;;;;;;18.25;16.75;;;;;20.06;35.32;101763.59;5058992;28;45847;-65
2022/04/27 11:09:08;;;;;;;;;17.25;17.25;;;;;20.05;34.64;101752.22;5058455;28;45267;-62
2022/04/27 11:11:51;;;;;;;;;17.50;15.75;;;;;20.03;34.82;101759.28;5058561;28;45982;-65
2022/04/27 11:14:19;;;;;;;;;19.25;15.75;;;;;20.04;35.06;101760.16;5058429;28;45240;-56
2022/04/27 11:16:49;;;;;;;;;13.50;13.50;;;;;20.03;34.74;101758.44;5058899;28;45556;-55
2022/04/27 11:19:16;;;;;;;;;14.50;14.50;;;;;20.05;35.03;101752.22;5058279;28;45435;-62
2022/04/27 11:21:41;;;;;;;;;15.25;12.75;;;;;20.05;34.80;101746.09;5058365;28;45246;-59
2022/04/27 11:24:11;;;;;;;;;16.00;14.25;;;;;20.06;34.66;101748.66;5058398;28;45397;-58
2022/04/27 11:26:47;;;;;;;;;15.50;15.00;;;;;20.08;35.04;101740.69;5058578;28;45402;-61
2022/04/27 11:29:13;;;;;;;;;16.00;15.00;;;;;20.08;34.85;101745.97;5058204;28;46158;-62
2022/04/27 11:31:43;;;;;;;;;15.00;14.00;;;;;20.07;34.86;101737.22;5058096;28;45894;-63
2022/04/27 11:34:28;;;;;;;;;15.00;13.25;;;;;20.07;34.56;101729.31;5058451;28;45243;-52